sensor_id;sensor_type;location;lat;lon;timestamp;P1;durP1;ratioP1;P2;durP2;ratioP2
3567;SDS011;1798;48.486;9.232;2023-05-03T00:01:21;17.45;;;9.18;;
3567;SDS011;1798;48.486;9.232;2023-05-03T00:03:51;21.35;;;9.65;;
3567;SDS011;1798;48.486;9.232;2023-05-03T00:06:18;17.55;;;9.30;;
3567;SDS011;1798;48.486;9.232;2023-05-03T00:08:46;18.85;;;9.68;;
3567;SDS011;1798;48.486;9.232;2023-05-03T00:11:13;38.80;;;10.18;;
3567;SDS011;1798;48.486;9.232;2023-05-03T00:13:40;17.63;;;10.25;;
3567;SDS011;1798;48.486;9.232;2023-05-03T00:16:08;17.98;;;9.32;;
3567;SDS011;1798;48.486;9.232;2023-05-03T00:18:35;16.50;;;9.27;;
3567;SDS011;1798;48.486;9.232;2023-05-03T00:21:05;22.40;;;9.30;;
3567;SDS011;1798;48.486;9.232;2023-05-03T00:23:32;20.60;;;9.70;;
3567;SDS011;1798;48.486;9.232;2023-05-03T00:25:58;15.25;;;9.50;;
3567;SDS011;1798;48.486;9.232;2023-05-03T00:28:25;15.02;;;8.18;;
3567;SDS011;1798;48.486;9.232;2023-05-03T00:30:52;17.38;;;9.40;;
3567;SDS011;1798;48.486;9.232;2023-05-03T00:33:20;13.82;;;8.48;;
3567;SDS011;1798;48.486;9.232;2023-05-03T00:35:47;18.35;;;9.23;;
3567;SDS011;1798;48.486;9.232;2023-05-03T00:38:14;18.95;;;9.45;;
3567;SDS011;1798;48.486;9.232;2023-05-03T00:40:40;16.25;;;8.93;;
3567;SDS011;1798;48.486;9.232;2023-05-03T00:43:09;16.55;;;9.45;;
3567;SDS011;1798;48.486;9.232;2023-05-03T00:45:37;23.10;;;9.52;;
3567;SDS011;1798;48.486;9.232;2023-05-03T00:48:04;16.60;;;9.40;;
3567;SDS011;1798;48.486;9.232;2023-05-03T00:50:32;15.88;;;9.68;;
3567;SDS011;1798;48.486;9.232;2023-05-03T00:52:59;19.27;;;8.73;;
3567;SDS011;1798;48.486;9.232;2023-05-03T00:55:27;18.88;;;8.60;;
3567;SDS011;1798;48.486;9.232;2023-05-03T00:57:55;16.73;;;9.20;;
3567;SDS011;1798;48.486;9.232;2023-05-03T01:00:22;17.95;;;8.90;;
3567;SDS011;1798;48.486;9.232;2023-05-03T01:02:49;16.67;;;9.60;;
3567;SDS011;1798;48.486;9.232;2023-05-03T01:05:16;14.70;;;8.37;;
3567;SDS011;1798;48.486;9.232;2023-05-03T01:07:47;17.67;;;9.33;;
3567;SDS011;1798;48.486;9.232;2023-05-03T01:10:25;19.43;;;9.67;;
3567;SDS011;1798;48.486;9.232;2023-05-03T01:12:59;17.10;;;8.63;;
3567;SDS011;1798;48.486;9.232;2023-05-03T01:15:43;21.27;;;9.27;;
3567;SDS011;1798;48.486;9.232;2023-05-03T01:18:13;15.25;;;8.20;;
3567;SDS011;1798;48.486;9.232;2023-05-03T01:20:42;15.38;;;8.40;;
3567;SDS011;1798;48.486;9.232;2023-05-03T01:23:13;18.65;;;8.80;;
3567;SDS011;1798;48.486;9.232;2023-05-03T01:25:44;13.43;;;7.77;;
3567;SDS011;1798;48.486;9.232;2023-05-03T01:28:11;19.15;;;8.80;;
3567;SDS011;1798;48.486;9.232;2023-05-03T01:30:38;14.50;;;8.48;;
3567;SDS011;1798;48.486;9.232;2023-05-03T01:33:08;14.27;;;8.60;;
3567;SDS011;1798;48.486;9.232;2023-05-03T01:35:39;18.13;;;8.88;;
3567;SDS011;1798;48.486;9.232;2023-05-03T01:38:06;17.02;;;9.27;;
3567;SDS011;1798;48.486;9.232;2023-05-03T01:40:35;19.25;;;9.50;;
3567;SDS011;1798;48.486;9.232;2023-05-03T01:43:06;15.10;;;8.43;;
3567;SDS011;1798;48.486;9.232;2023-05-03T01:45:33;23.60;;;8.55;;
3567;SDS011;1798;48.486;9.232;2023-05-03T01:48:00;14.82;;;8.60;;
3567;SDS011;1798;48.486;9.232;2023-05-03T01:50:27;17.98;;;9.60;;
3567;SDS011;1798;48.486;9.232;2023-05-03T01:52:53;15.40;;;8.88;;
3567;SDS011;1798;48.486;9.232;2023-05-03T01:55:20;17.87;;;9.27;;
3567;SDS011;1798;48.486;9.232;2023-05-03T01:57:46;21.80;;;8.80;;
3567;SDS011;1798;48.486;9.232;2023-05-03T02:00:15;15.75;;;8.80;;
3567;SDS011;1798;48.486;9.232;2023-05-03T02:02:42;16.80;;;8.25;;
3567;SDS011;1798;48.486;9.232;2023-05-03T02:05:08;16.77;;;8.90;;
3567;SDS011;1798;48.486;9.232;2023-05-03T02:07:36;20.40;;;8.32;;
3567;SDS011;1798;48.486;9.232;2023-05-03T02:10:03;18.85;;;8.77;;
3567;SDS011;1798;48.486;9.232;2023-05-03T02:12:30;13.75;;;8.18;;
3567;SDS011;1798;48.486;9.232;2023-05-03T02:14:57;15.30;;;8.50;;
3567;SDS011;1798;48.486;9.232;2023-05-03T02:17:25;13.68;;;8.10;;
3567;SDS011;1798;48.486;9.232;2023-05-03T02:19:52;18.10;;;9.05;;
3567;SDS011;1798;48.486;9.232;2023-05-03T02:22:19;15.00;;;7.90;;
3567;SDS011;1798;48.486;9.232;2023-05-03T02:24:46;17.50;;;8.68;;
3567;SDS011;1798;48.486;9.232;2023-05-03T02:27:13;15.35;;;7.85;;
3567;SDS011;1798;48.486;9.232;2023-05-03T02:29:39;17.43;;;9.50;;
3567;SDS011;1798;48.486;9.232;2023-05-03T02:32:06;20.05;;;9.00;;
3567;SDS011;1798;48.486;9.232;2023-05-03T02:34:35;17.23;;;8.55;;
3567;SDS011;1798;48.486;9.232;2023-05-03T02:37:01;13.70;;;8.40;;
3567;SDS011;1798;48.486;9.232;2023-05-03T02:39:29;37.92;;;8.73;;
3567;SDS011;1798;48.486;9.232;2023-05-03T02:41:56;17.02;;;8.38;;
3567;SDS011;1798;48.486;9.232;2023-05-03T02:44:22;16.20;;;8.30;;
3567;SDS011;1798;48.486;9.232;2023-05-03T02:46:49;13.60;;;7.60;;
3567;SDS011;1798;48.486;9.232;2023-05-03T02:49:15;17.73;;;8.33;;
3567;SDS011;1798;48.486;9.232;2023-05-03T02:51:44;15.60;;;7.80;;
3567;SDS011;1798;48.486;9.232;2023-05-03T02:54:10;17.17;;;7.90;;
3567;SDS011;1798;48.486;9.232;2023-05-03T02:56:37;35.10;;;9.30;;
3567;SDS011;1798;48.486;9.232;2023-05-03T02:59:04;16.98;;;7.75;;
3567;SDS011;1798;48.486;9.232;2023-05-03T03:01:31;15.18;;;8.00;;
3567;SDS011;1798;48.486;9.232;2023-05-03T03:03:58;16.75;;;8.57;;
3567;SDS011;1798;48.486;9.232;2023-05-03T03:06:25;19.77;;;8.45;;
3567;SDS011;1798;48.486;9.232;2023-05-03T03:08:53;14.32;;;8.23;;
3567;SDS011;1798;48.486;9.232;2023-05-03T03:11:20;23.90;;;8.37;;
3567;SDS011;1798;48.486;9.232;2023-05-03T03:13:48;12.53;;;7.70;;
3567;SDS011;1798;48.486;9.232;2023-05-03T03:16:14;15.32;;;8.05;;
3567;SDS011;1798;48.486;9.232;2023-05-03T03:18:41;17.07;;;8.13;;
3567;SDS011;1798;48.486;9.232;2023-05-03T03:21:08;16.65;;;8.02;;
3567;SDS011;1798;48.486;9.232;2023-05-03T03:23:34;12.90;;;7.20;;
3567;SDS011;1798;48.486;9.232;2023-05-03T03:26:03;15.32;;;8.18;;
3567;SDS011;1798;48.486;9.232;2023-05-03T03:28:30;14.30;;;7.93;;
3567;SDS011;1798;48.486;9.232;2023-05-03T03:30:57;15.30;;;8.00;;
3567;SDS011;1798;48.486;9.232;2023-05-03T03:33:23;14.32;;;8.32;;
3567;SDS011;1798;48.486;9.232;2023-05-03T03:35:50;14.95;;;8.25;;
3567;SDS011;1798;48.486;9.232;2023-05-03T03:38:17;15.53;;;8.53;;
3567;SDS011;1798;48.486;9.232;2023-05-03T03:40:44;15.75;;;8.13;;
3567;SDS011;1798;48.486;9.232;2023-05-03T03:43:12;16.77;;;8.15;;
3567;SDS011;1798;48.486;9.232;2023-05-03T03:45:38;16.63;;;8.60;;
3567;SDS011;1798;48.486;9.232;2023-05-03T03:48:05;13.82;;;8.15;;
3567;SDS011;1798;48.486;9.232;2023-05-03T03:50:32;18.35;;;9.15;;
3567;SDS011;1798;48.486;9.232;2023-05-03T03:52:59;17.58;;;8.18;;
3567;SDS011;1798;48.486;9.232;2023-05-03T03:55:25;12.95;;;7.28;;
3567;SDS011;1798;48.486;9.232;2023-05-03T03:57:52;14.50;;;8.10;;
3567;SDS011;1798;48.486;9.232;2023-05-03T04:00:20;15.70;;;8.95;;
3567;SDS011;1798;48.486;9.232;2023-05-03T04:02:47;14.90;;;7.63;;
3567;SDS011;1798;48.486;9.232;2023-05-03T04:05:14;15.05;;;8.10;;
3567;SDS011;1798;48.486;9.232;2023-05-03T04:07:41;18.85;;;8.43;;
3567;SDS011;1798;48.486;9.232;2023-05-03T04:10:08;11.98;;;7.90;;
3567;SDS011;1798;48.486;9.232;2023-05-03T04:12:35;15.13;;;8.20;;
3567;SDS011;1798;48.486;9.232;2023-05-03T04:15:02;14.73;;;8.10;;
3567;SDS011;1798;48.486;9.232;2023-05-03T04:17:30;15.05;;;8.13;;
3567;SDS011;1798;48.486;9.232;2023-05-03T04:19:58;17.77;;;9.27;;
3567;SDS011;1798;48.486;9.232;2023-05-03T04:22:27;15.30;;;8.80;;
3567;SDS011;1798;48.486;9.232;2023-05-03T04:24:56;22.50;;;9.13;;
3567;SDS011;1798;48.486;9.232;2023-05-03T04:27:25;16.48;;;8.23;;
3567;SDS011;1798;48.486;9.232;2023-05-03T04:29:52;19.60;;;8.70;;
3567;SDS011;1798;48.486;9.232;2023-05-03T04:32:18;17.58;;;8.30;;
3567;SDS011;1798;48.486;9.232;2023-05-03T04:34:48;16.63;;;8.90;;
3567;SDS011;1798;48.486;9.232;2023-05-03T04:37:16;18.75;;;8.85;;
3567;SDS011;1798;48.486;9.232;2023-05-03T04:39:43;13.95;;;8.70;;
3567;SDS011;1798;48.486;9.232;2023-05-03T04:42:10;17.15;;;7.95;;
3567;SDS011;1798;48.486;9.232;2023-05-03T04:44:37;21.23;;;9.45;;
3567;SDS011;1798;48.486;9.232;2023-05-03T04:47:04;15.02;;;8.80;;
3567;SDS011;1798;48.486;9.232;2023-05-03T04:49:31;19.98;;;8.90;;
3567;SDS011;1798;48.486;9.232;2023-05-03T04:51:59;15.30;;;8.70;;
3567;SDS011;1798;48.486;9.232;2023-05-03T04:54:26;14.00;;;8.65;;
3567;SDS011;1798;48.486;9.232;2023-05-03T04:56:53;16.90;;;9.30;;
3567;SDS011;1798;48.486;9.232;2023-05-03T04:59:20;18.02;;;9.85;;
3567;SDS011;1798;48.486;9.232;2023-05-03T05:01:47;20.35;;;9.30;;
3567;SDS011;1798;48.486;9.232;2023-05-03T05:04:14;19.58;;;8.40;;
3567;SDS011;1798;48.486;9.232;2023-05-03T05:06:40;20.13;;;9.55;;
3567;SDS011;1798;48.486;9.232;2023-05-03T05:09:17;28.10;;;10.27;;
3567;SDS011;1798;48.486;9.232;2023-05-03T05:11:45;28.52;;;9.90;;
3567;SDS011;1798;48.486;9.232;2023-05-03T05:14:12;46.90;;;10.38;;
3567;SDS011;1798;48.486;9.232;2023-05-03T05:16:39;37.53;;;10.85;;
3567;SDS011;1798;48.486;9.232;2023-05-03T05:19:06;24.98;;;9.55;;
3567;SDS011;1798;48.486;9.232;2023-05-03T05:21:33;20.33;;;11.25;;
3567;SDS011;1798;48.486;9.232;2023-05-03T05:24:00;20.15;;;9.00;;
3567;SDS011;1798;48.486;9.232;2023-05-03T05:26:28;22.35;;;9.23;;
3567;SDS011;1798;48.486;9.232;2023-05-03T05:28:55;22.05;;;8.98;;
3567;SDS011;1798;48.486;9.232;2023-05-03T05:31:22;19.67;;;10.40;;
3567;SDS011;1798;48.486;9.232;2023-05-03T05:33:49;18.85;;;9.70;;
3567;SDS011;1798;48.486;9.232;2023-05-03T05:36:16;24.93;;;10.40;;
3567;SDS011;1798;48.486;9.232;2023-05-03T05:38:43;21.63;;;9.80;;
3567;SDS011;1798;48.486;9.232;2023-05-03T05:41:09;34.53;;;10.83;;
3567;SDS011;1798;48.486;9.232;2023-05-03T05:43:37;31.25;;;10.63;;
3567;SDS011;1798;48.486;9.232;2023-05-03T05:46:04;38.17;;;12.02;;
3567;SDS011;1798;48.486;9.232;2023-05-03T05:48:32;27.85;;;11.90;;
3567;SDS011;1798;48.486;9.232;2023-05-03T05:50:59;22.95;;;10.98;;
3567;SDS011;1798;48.486;9.232;2023-05-03T05:53:25;23.60;;;11.73;;
3567;SDS011;1798;48.486;9.232;2023-05-03T05:55:52;27.67;;;12.63;;
3567;SDS011;1798;48.486;9.232;2023-05-03T05:58:19;33.65;;;10.93;;
3567;SDS011;1798;48.486;9.232;2023-05-03T06:00:47;32.75;;;11.80;;
3567;SDS011;1798;48.486;9.232;2023-05-03T06:03:14;34.35;;;12.35;;
3567;SDS011;1798;48.486;9.232;2023-05-03T06:05:40;44.72;;;12.82;;
3567;SDS011;1798;48.486;9.232;2023-05-03T06:08:07;32.35;;;13.07;;
3567;SDS011;1798;48.486;9.232;2023-05-03T06:10:34;31.30;;;13.32;;
3567;SDS011;1798;48.486;9.232;2023-05-03T06:13:01;23.33;;;12.73;;
3567;SDS011;1798;48.486;9.232;2023-05-03T06:15:28;23.25;;;13.10;;
3567;SDS011;1798;48.486;9.232;2023-05-03T06:17:56;24.55;;;14.20;;
3567;SDS011;1798;48.486;9.232;2023-05-03T06:20:23;25.85;;;14.00;;
3567;SDS011;1798;48.486;9.232;2023-05-03T06:22:50;30.83;;;13.98;;
3567;SDS011;1798;48.486;9.232;2023-05-03T06:25:17;25.52;;;13.45;;
3567;SDS011;1798;48.486;9.232;2023-05-03T06:27:44;28.75;;;13.27;;
3567;SDS011;1798;48.486;9.232;2023-05-03T06:30:11;21.23;;;10.40;;
3567;SDS011;1798;48.486;9.232;2023-05-03T06:32:38;26.80;;;14.07;;
3567;SDS011;1798;48.486;9.232;2023-05-03T06:35:07;24.83;;;9.43;;
3567;SDS011;1798;48.486;9.232;2023-05-03T06:37:35;31.95;;;11.82;;
3567;SDS011;1798;48.486;9.232;2023-05-03T06:40:01;24.75;;;12.10;;
3567;SDS011;1798;48.486;9.232;2023-05-03T06:42:28;41.38;;;13.88;;
3567;SDS011;1798;48.486;9.232;2023-05-03T06:44:55;23.45;;;13.88;;
3567;SDS011;1798;48.486;9.232;2023-05-03T06:47:22;21.40;;;12.25;;
3567;SDS011;1798;48.486;9.232;2023-05-03T06:49:49;24.03;;;11.70;;
3567;SDS011;1798;48.486;9.232;2023-05-03T06:52:18;24.25;;;14.02;;
3567;SDS011;1798;48.486;9.232;2023-05-03T06:54:44;24.30;;;13.82;;
3567;SDS011;1798;48.486;9.232;2023-05-03T06:57:11;36.00;;;14.32;;
3567;SDS011;1798;48.486;9.232;2023-05-03T06:59:38;28.02;;;13.52;;
3567;SDS011;1798;48.486;9.232;2023-05-03T07:02:05;20.65;;;11.77;;
3567;SDS011;1798;48.486;9.232;2023-05-03T07:04:32;35.22;;;15.98;;
3567;SDS011;1798;48.486;9.232;2023-05-03T07:06:59;25.48;;;13.60;;
3567;SDS011;1798;48.486;9.232;2023-05-03T07:09:27;23.33;;;13.15;;
3567;SDS011;1798;48.486;9.232;2023-05-03T07:11:53;28.90;;;12.67;;
3567;SDS011;1798;48.486;9.232;2023-05-03T07:14:20;36.30;;;13.20;;
3567;SDS011;1798;48.486;9.232;2023-05-03T07:16:47;18.55;;;10.90;;
3567;SDS011;1798;48.486;9.232;2023-05-03T07:19:13;28.05;;;11.93;;
3567;SDS011;1798;48.486;9.232;2023-05-03T07:21:40;26.92;;;13.13;;
3567;SDS011;1798;48.486;9.232;2023-05-03T07:24:07;28.70;;;13.95;;
3567;SDS011;1798;48.486;9.232;2023-05-03T07:26:38;32.60;;;12.70;;
3567;SDS011;1798;48.486;9.232;2023-05-03T07:29:04;30.80;;;13.23;;
3567;SDS011;1798;48.486;9.232;2023-05-03T07:31:32;19.55;;;11.35;;
3567;SDS011;1798;48.486;9.232;2023-05-03T07:33:59;35.38;;;15.52;;
3567;SDS011;1798;48.486;9.232;2023-05-03T07:36:26;24.33;;;12.55;;
3567;SDS011;1798;48.486;9.232;2023-05-03T07:38:52;22.10;;;12.50;;
3567;SDS011;1798;48.486;9.232;2023-05-03T07:41:19;24.45;;;10.70;;
3567;SDS011;1798;48.486;9.232;2023-05-03T07:43:47;21.20;;;12.05;;
3567;SDS011;1798;48.486;9.232;2023-05-03T07:46:14;21.30;;;11.35;;
3567;SDS011;1798;48.486;9.232;2023-05-03T07:48:41;23.70;;;12.38;;
3567;SDS011;1798;48.486;9.232;2023-05-03T07:51:08;25.90;;;15.30;;
3567;SDS011;1798;48.486;9.232;2023-05-03T07:53:35;25.48;;;13.18;;
3567;SDS011;1798;48.486;9.232;2023-05-03T07:56:04;24.42;;;12.48;;
3567;SDS011;1798;48.486;9.232;2023-05-03T07:58:32;26.63;;;14.30;;
3567;SDS011;1798;48.486;9.232;2023-05-03T08:01:00;20.87;;;12.13;;
3567;SDS011;1798;48.486;9.232;2023-05-03T08:03:27;22.50;;;14.07;;
3567;SDS011;1798;48.486;9.232;2023-05-03T08:05:53;20.17;;;13.15;;
3567;SDS011;1798;48.486;9.232;2023-05-03T08:08:20;20.10;;;13.10;;
3567;SDS011;1798;48.486;9.232;2023-05-03T08:10:48;21.13;;;10.60;;
3567;SDS011;1798;48.486;9.232;2023-05-03T08:13:14;26.30;;;13.37;;
3567;SDS011;1798;48.486;9.232;2023-05-03T08:15:41;17.58;;;11.30;;
3567;SDS011;1798;48.486;9.232;2023-05-03T08:18:11;22.17;;;12.95;;
3567;SDS011;1798;48.486;9.232;2023-05-03T08:20:37;26.33;;;14.13;;
3567;SDS011;1798;48.486;9.232;2023-05-03T08:23:04;22.85;;;12.93;;
3567;SDS011;1798;48.486;9.232;2023-05-03T08:25:32;23.45;;;14.75;;
3567;SDS011;1798;48.486;9.232;2023-05-03T08:28:01;25.17;;;12.90;;
3567;SDS011;1798;48.486;9.232;2023-05-03T08:30:27;23.85;;;14.02;;
3567;SDS011;1798;48.486;9.232;2023-05-03T08:32:54;20.58;;;11.98;;
3567;SDS011;1798;48.486;9.232;2023-05-03T08:35:22;23.00;;;12.52;;
3567;SDS011;1798;48.486;9.232;2023-05-03T08:37:49;23.60;;;14.35;;
3567;SDS011;1798;48.486;9.232;2023-05-03T08:40:16;25.20;;;13.32;;
3567;SDS011;1798;48.486;9.232;2023-05-03T08:42:47;22.40;;;13.77;;
3567;SDS011;1798;48.486;9.232;2023-05-03T08:45:14;28.20;;;15.63;;
3567;SDS011;1798;48.486;9.232;2023-05-03T08:47:41;31.30;;;15.13;;
3567;SDS011;1798;48.486;9.232;2023-05-03T08:50:09;20.03;;;13.17;;
3567;SDS011;1798;48.486;9.232;2023-05-03T08:52:37;23.83;;;14.75;;
3567;SDS011;1798;48.486;9.232;2023-05-03T08:55:06;25.42;;;13.75;;
3567;SDS011;1798;48.486;9.232;2023-05-03T08:57:34;21.80;;;13.68;;
3567;SDS011;1798;48.486;9.232;2023-05-03T09:00:01;21.00;;;13.18;;
3567;SDS011;1798;48.486;9.232;2023-05-03T09:02:30;23.80;;;12.77;;
3567;SDS011;1798;48.486;9.232;2023-05-03T09:04:58;21.25;;;13.20;;
3567;SDS011;1798;48.486;9.232;2023-05-03T09:07:25;20.10;;;12.73;;
3567;SDS011;1798;48.486;9.232;2023-05-03T09:09:54;25.27;;;14.50;;
3567;SDS011;1798;48.486;9.232;2023-05-03T09:15:05;20.13;;;12.60;;
3567;SDS011;1798;48.486;9.232;2023-05-03T09:17:32;36.13;;;18.55;;
3567;SDS011;1798;48.486;9.232;2023-05-03T09:19:59;30.00;;;17.60;;
3567;SDS011;1798;48.486;9.232;2023-05-03T09:22:26;28.55;;;18.05;;
3567;SDS011;1798;48.486;9.232;2023-05-03T09:24:58;25.90;;;18.88;;
3567;SDS011;1798;48.486;9.232;2023-05-03T09:27:25;23.15;;;16.48;;
3567;SDS011;1798;48.486;9.232;2023-05-03T09:29:53;28.08;;;17.67;;
3567;SDS011;1798;48.486;9.232;2023-05-03T09:32:20;29.00;;;19.00;;
3567;SDS011;1798;48.486;9.232;2023-05-03T09:34:48;29.58;;;19.60;;
3567;SDS011;1798;48.486;9.232;2023-05-03T09:37:15;33.97;;;18.63;;
3567;SDS011;1798;48.486;9.232;2023-05-03T09:39:42;28.00;;;18.23;;
3567;SDS011;1798;48.486;9.232;2023-05-03T09:42:11;29.13;;;19.13;;
3567;SDS011;1798;48.486;9.232;2023-05-03T09:44:40;26.88;;;17.05;;
3567;SDS011;1798;48.486;9.232;2023-05-03T09:47:08;31.08;;;17.25;;
3567;SDS011;1798;48.486;9.232;2023-05-03T09:49:35;30.75;;;17.20;;
3567;SDS011;1798;48.486;9.232;2023-05-03T09:52:02;45.53;;;20.00;;
3567;SDS011;1798;48.486;9.232;2023-05-03T09:54:30;29.25;;;16.92;;
3567;SDS011;1798;48.486;9.232;2023-05-03T09:56:57;33.90;;;19.00;;
3567;SDS011;1798;48.486;9.232;2023-05-03T09:59:26;29.77;;;18.33;;
3567;SDS011;1798;48.486;9.232;2023-05-03T10:01:54;31.55;;;19.75;;
3567;SDS011;1798;48.486;9.232;2023-05-03T10:04:23;32.70;;;18.75;;
3567;SDS011;1798;48.486;9.232;2023-05-03T10:06:52;32.60;;;18.55;;
3567;SDS011;1798;48.486;9.232;2023-05-03T10:09:23;27.90;;;18.40;;
3567;SDS011;1798;48.486;9.232;2023-05-03T10:11:54;33.17;;;19.50;;
3567;SDS011;1798;48.486;9.232;2023-05-03T10:14:25;28.58;;;18.70;;
3567;SDS011;1798;48.486;9.232;2023-05-03T10:16:52;27.27;;;16.73;;
3567;SDS011;1798;48.486;9.232;2023-05-03T10:19:27;30.47;;;17.80;;
3567;SDS011;1798;48.486;9.232;2023-05-03T10:21:58;27.27;;;17.95;;
3567;SDS011;1798;48.486;9.232;2023-05-03T10:24:29;44.50;;;18.98;;
3567;SDS011;1798;48.486;9.232;2023-05-03T10:26:56;30.63;;;19.88;;
3567;SDS011;1798;48.486;9.232;2023-05-03T10:32:32;28.63;;;18.70;;
3567;SDS011;1798;48.486;9.232;2023-05-03T10:35:00;25.73;;;15.82;;
3567;SDS011;1798;48.486;9.232;2023-05-03T10:37:29;24.20;;;17.08;;
3567;SDS011;1798;48.486;9.232;2023-05-03T10:40:04;28.17;;;17.65;;
3567;SDS011;1798;48.486;9.232;2023-05-03T10:42:33;27.40;;;16.13;;
3567;SDS011;1798;48.486;9.232;2023-05-03T10:45:01;26.30;;;16.48;;
3567;SDS011;1798;48.486;9.232;2023-05-03T10:47:29;30.30;;;16.17;;
3567;SDS011;1798;48.486;9.232;2023-05-03T10:52:51;26.90;;;16.20;;
3567;SDS011;1798;48.486;9.232;2023-05-03T10:55:18;28.65;;;16.67;;
3567;SDS011;1798;48.486;9.232;2023-05-03T10:57:46;26.63;;;15.97;;
3567;SDS011;1798;48.486;9.232;2023-05-03T11:00:18;24.30;;;15.00;;
3567;SDS011;1798;48.486;9.232;2023-05-03T11:02:56;28.92;;;15.80;;
3567;SDS011;1798;48.486;9.232;2023-05-03T11:05:38;25.13;;;15.70;;
3567;SDS011;1798;48.486;9.232;2023-05-03T11:08:07;23.77;;;15.25;;
3567;SDS011;1798;48.486;9.232;2023-05-03T11:10:36;23.05;;;14.10;;
3567;SDS011;1798;48.486;9.232;2023-05-03T11:13:04;26.10;;;15.20;;
3567;SDS011;1798;48.486;9.232;2023-05-03T11:15:32;27.55;;;16.30;;
3567;SDS011;1798;48.486;9.232;2023-05-03T11:17:59;30.75;;;16.08;;
3567;SDS011;1798;48.486;9.232;2023-05-03T11:20:25;24.87;;;15.83;;
3567;SDS011;1798;48.486;9.232;2023-05-03T11:22:52;29.40;;;15.15;;
3567;SDS011;1798;48.486;9.232;2023-05-03T11:25:19;23.80;;;14.40;;
3567;SDS011;1798;48.486;9.232;2023-05-03T11:27:46;28.65;;;14.00;;
3567;SDS011;1798;48.486;9.232;2023-05-03T11:30:12;26.77;;;15.50;;
3567;SDS011;1798;48.486;9.232;2023-05-03T11:32:41;22.52;;;14.23;;
3567;SDS011;1798;48.486;9.232;2023-05-03T11:35:08;22.63;;;12.25;;
3567;SDS011;1798;48.486;9.232;2023-05-03T11:37:35;24.10;;;15.30;;
3567;SDS011;1798;48.486;9.232;2023-05-03T11:40:02;36.03;;;16.60;;
3567;SDS011;1798;48.486;9.232;2023-05-03T11:42:30;22.65;;;13.57;;
3567;SDS011;1798;48.486;9.232;2023-05-03T11:44:57;25.77;;;14.20;;
3567;SDS011;1798;48.486;9.232;2023-05-03T11:47:24;26.52;;;14.88;;
3567;SDS011;1798;48.486;9.232;2023-05-03T11:49:52;24.00;;;14.55;;
3567;SDS011;1798;48.486;9.232;2023-05-03T11:52:20;27.75;;;15.27;;
3567;SDS011;1798;48.486;9.232;2023-05-03T11:54:48;25.20;;;13.85;;
3567;SDS011;1798;48.486;9.232;2023-05-03T11:57:14;26.98;;;15.13;;
3567;SDS011;1798;48.486;9.232;2023-05-03T11:59:41;23.65;;;13.73;;
3567;SDS011;1798;48.486;9.232;2023-05-03T12:02:10;23.88;;;13.02;;
3567;SDS011;1798;48.486;9.232;2023-05-03T12:04:38;24.65;;;13.15;;
3567;SDS011;1798;48.486;9.232;2023-05-03T12:07:07;25.08;;;14.23;;
3567;SDS011;1798;48.486;9.232;2023-05-03T12:09:34;20.55;;;13.45;;
3567;SDS011;1798;48.486;9.232;2023-05-03T12:12:01;23.13;;;12.55;;
3567;SDS011;1798;48.486;9.232;2023-05-03T12:14:29;22.60;;;12.43;;
3567;SDS011;1798;48.486;9.232;2023-05-03T12:17:38;21.83;;;13.80;;
3567;SDS011;1798;48.486;9.232;2023-05-03T12:20:14;20.27;;;13.55;;
3567;SDS011;1798;48.486;9.232;2023-05-03T12:22:43;23.23;;;12.00;;
3567;SDS011;1798;48.486;9.232;2023-05-03T12:25:10;20.75;;;11.90;;
3567;SDS011;1798;48.486;9.232;2023-05-03T12:27:36;18.70;;;12.10;;
3567;SDS011;1798;48.486;9.232;2023-05-03T12:30:03;19.10;;;10.90;;
3567;SDS011;1798;48.486;9.232;2023-05-03T12:32:31;22.10;;;11.45;;
3567;SDS011;1798;48.486;9.232;2023-05-03T12:34:58;20.38;;;12.23;;
3567;SDS011;1798;48.486;9.232;2023-05-03T12:37:25;20.27;;;11.30;;
3567;SDS011;1798;48.486;9.232;2023-05-03T12:39:53;20.17;;;10.95;;
3567;SDS011;1798;48.486;9.232;2023-05-03T12:42:21;20.50;;;11.48;;
3567;SDS011;1798;48.486;9.232;2023-05-03T12:44:47;20.73;;;10.50;;
3567;SDS011;1798;48.486;9.232;2023-05-03T12:47:15;31.98;;;13.00;;
3567;SDS011;1798;48.486;9.232;2023-05-03T12:49:41;26.42;;;11.25;;
3567;SDS011;1798;48.486;9.232;2023-05-03T12:52:08;26.20;;;11.82;;
3567;SDS011;1798;48.486;9.232;2023-05-03T12:54:35;20.60;;;11.37;;
3567;SDS011;1798;48.486;9.232;2023-05-03T12:57:03;17.90;;;9.93;;
3567;SDS011;1798;48.486;9.232;2023-05-03T12:59:30;17.17;;;9.73;;
3567;SDS011;1798;48.486;9.232;2023-05-03T13:01:57;16.55;;;9.50;;
3567;SDS011;1798;48.486;9.232;2023-05-03T13:04:23;17.17;;;10.35;;
3567;SDS011;1798;48.486;9.232;2023-05-03T13:06:50;15.65;;;9.10;;
3567;SDS011;1798;48.486;9.232;2023-05-03T13:09:17;16.30;;;9.25;;
3567;SDS011;1798;48.486;9.232;2023-05-03T13:11:44;19.67;;;10.20;;
3567;SDS011;1798;48.486;9.232;2023-05-03T13:14:14;20.40;;;12.10;;
3567;SDS011;1798;48.486;9.232;2023-05-03T13:16:40;15.27;;;8.60;;
3567;SDS011;1798;48.486;9.232;2023-05-03T13:19:09;12.93;;;7.40;;
3567;SDS011;1798;48.486;9.232;2023-05-03T13:21:36;15.15;;;9.30;;
3567;SDS011;1798;48.486;9.232;2023-05-03T13:24:02;15.93;;;10.60;;
3567;SDS011;1798;48.486;9.232;2023-05-03T13:26:30;21.55;;;9.18;;
3567;SDS011;1798;48.486;9.232;2023-05-03T13:28:57;16.08;;;8.80;;
3567;SDS011;1798;48.486;9.232;2023-05-03T13:31:25;17.57;;;11.00;;
3567;SDS011;1798;48.486;9.232;2023-05-03T13:33:54;18.33;;;12.68;;
3567;SDS011;1798;48.486;9.232;2023-05-03T13:36:21;18.00;;;9.57;;
3567;SDS011;1798;48.486;9.232;2023-05-03T13:38:47;17.30;;;9.45;;
3567;SDS011;1798;48.486;9.232;2023-05-03T13:41:15;16.25;;;9.52;;
3567;SDS011;1798;48.486;9.232;2023-05-03T13:43:42;22.85;;;11.48;;
3567;SDS011;1798;48.486;9.232;2023-05-03T13:46:09;16.93;;;9.40;;
3567;SDS011;1798;48.486;9.232;2023-05-03T13:48:37;18.58;;;11.02;;
3567;SDS011;1798;48.486;9.232;2023-05-03T13:51:08;18.83;;;10.75;;
3567;SDS011;1798;48.486;9.232;2023-05-03T13:53:35;15.63;;;9.80;;
3567;SDS011;1798;48.486;9.232;2023-05-03T13:56:01;14.70;;;9.70;;
3567;SDS011;1798;48.486;9.232;2023-05-03T13:58:28;18.33;;;9.65;;
3567;SDS011;1798;48.486;9.232;2023-05-03T14:00:55;15.82;;;8.77;;
3567;SDS011;1798;48.486;9.232;2023-05-03T14:03:22;16.45;;;10.30;;
3567;SDS011;1798;48.486;9.232;2023-05-03T14:05:50;15.85;;;9.75;;
3567;SDS011;1798;48.486;9.232;2023-05-03T14:08:16;16.98;;;9.00;;
3567;SDS011;1798;48.486;9.232;2023-05-03T14:10:43;16.98;;;10.95;;
3567;SDS011;1798;48.486;9.232;2023-05-03T14:13:10;15.77;;;10.50;;
3567;SDS011;1798;48.486;9.232;2023-05-03T14:15:37;19.25;;;8.98;;
3567;SDS011;1798;48.486;9.232;2023-05-03T14:18:04;14.70;;;9.38;;
3567;SDS011;1798;48.486;9.232;2023-05-03T14:20:32;17.10;;;9.53;;
3567;SDS011;1798;48.486;9.232;2023-05-03T14:23:01;16.80;;;8.73;;
3567;SDS011;1798;48.486;9.232;2023-05-03T14:25:28;22.48;;;9.10;;
3567;SDS011;1798;48.486;9.232;2023-05-03T14:27:55;13.27;;;8.85;;
3567;SDS011;1798;48.486;9.232;2023-05-03T14:30:22;18.88;;;9.13;;
3567;SDS011;1798;48.486;9.232;2023-05-03T14:32:48;14.70;;;9.83;;
3567;SDS011;1798;48.486;9.232;2023-05-03T14:35:16;14.75;;;8.90;;
3567;SDS011;1798;48.486;9.232;2023-05-03T14:37:44;16.70;;;9.70;;
3567;SDS011;1798;48.486;9.232;2023-05-03T14:40:14;15.13;;;9.23;;
3567;SDS011;1798;48.486;9.232;2023-05-03T14:42:41;14.20;;;8.52;;
3567;SDS011;1798;48.486;9.232;2023-05-03T14:45:08;15.68;;;8.18;;
3567;SDS011;1798;48.486;9.232;2023-05-03T14:47:38;14.88;;;8.38;;
3567;SDS011;1798;48.486;9.232;2023-05-03T14:50:06;12.00;;;8.10;;
3567;SDS011;1798;48.486;9.232;2023-05-03T14:52:33;13.02;;;8.95;;
3567;SDS011;1798;48.486;9.232;2023-05-03T14:55:01;18.83;;;8.70;;
3567;SDS011;1798;48.486;9.232;2023-05-03T14:57:30;16.33;;;7.65;;
3567;SDS011;1798;48.486;9.232;2023-05-03T14:59:59;14.23;;;8.70;;
3567;SDS011;1798;48.486;9.232;2023-05-03T15:02:26;16.50;;;8.00;;
3567;SDS011;1798;48.486;9.232;2023-05-03T15:04:52;13.13;;;7.93;;
3567;SDS011;1798;48.486;9.232;2023-05-03T15:07:19;18.17;;;7.18;;